sensor_id;sensor_type;location;lat;lon;timestamp;P1;durP1;ratioP1;P2;durP2;ratioP2
29816;SDS011;16805;52.956;5.906;2024-03-06T00:01:53;15.88;;;8.68;;
29816;SDS011;16805;52.956;5.906;2024-03-06T00:04:20;12.85;;;9.73;;
29816;SDS011;16805;52.956;5.906;2024-03-06T00:06:49;17.40;;;12.40;;
29816;SDS011;16805;52.956;5.906;2024-03-06T00:09:23;15.90;;;8.00;;
29816;SDS011;16805;52.956;5.906;2024-03-06T00:11:52;14.43;;;8.73;;
29816;SDS011;16805;52.956;5.906;2024-03-06T00:14:21;14.18;;;10.15;;
29816;SDS011;16805;52.956;5.906;2024-03-06T00:16:48;11.07;;;8.60;;
29816;SDS011;16805;52.956;5.906;2024-03-06T00:19:17;10.02;;;7.47;;
29816;SDS011;16805;52.956;5.906;2024-03-06T00:21:44;21.73;;;10.90;;
29816;SDS011;16805;52.956;5.906;2024-03-06T00:24:15;9.95;;;8.10;;
29816;SDS011;16805;52.956;5.906;2024-03-06T00:26:48;16.02;;;9.20;;
29816;SDS011;16805;52.956;5.906;2024-03-06T00:29:14;12.45;;;9.90;;
29816;SDS011;16805;52.956;5.906;2024-03-06T00:31:44;11.32;;;8.57;;
29816;SDS011;16805;52.956;5.906;2024-03-06T00:34:11;13.13;;;9.45;;
29816;SDS011;16805;52.956;5.906;2024-03-06T00:36:40;12.90;;;8.57;;
29816;SDS011;16805;52.956;5.906;2024-03-06T00:39:06;13.93;;;9.27;;
29816;SDS011;16805;52.956;5.906;2024-03-06T00:41:33;14.18;;;8.80;;
29816;SDS011;16805;52.956;5.906;2024-03-06T00:44:00;10.80;;;7.55;;
29816;SDS011;16805;52.956;5.906;2024-03-06T00:46:26;16.08;;;8.57;;
29816;SDS011;16805;52.956;5.906;2024-03-06T00:48:52;10.07;;;7.68;;
29816;SDS011;16805;52.956;5.906;2024-03-06T00:51:18;12.55;;;8.10;;
29816;SDS011;16805;52.956;5.906;2024-03-06T00:53:44;14.27;;;10.13;;
29816;SDS011;16805;52.956;5.906;2024-03-06T00:56:13;9.73;;;7.10;;
29816;SDS011;16805;52.956;5.906;2024-03-06T00:58:39;14.20;;;7.63;;
29816;SDS011;16805;52.956;5.906;2024-03-06T01:01:05;14.13;;;8.77;;
29816;SDS011;16805;52.956;5.906;2024-03-06T01:03:34;16.05;;;9.00;;
29816;SDS011;16805;52.956;5.906;2024-03-06T01:06:02;14.40;;;7.90;;
29816;SDS011;16805;52.956;5.906;2024-03-06T01:08:31;9.00;;;7.35;;
29816;SDS011;16805;52.956;5.906;2024-03-06T01:10:57;13.38;;;8.30;;
29816;SDS011;16805;52.956;5.906;2024-03-06T01:13:27;12.40;;;8.57;;
29816;SDS011;16805;52.956;5.906;2024-03-06T01:16:14;15.60;;;8.45;;
29816;SDS011;16805;52.956;5.906;2024-03-06T01:18:44;15.95;;;8.27;;
29816;SDS011;16805;52.956;5.906;2024-03-06T01:21:21;8.18;;;7.35;;
29816;SDS011;16805;52.956;5.906;2024-03-06T01:23:46;15.68;;;7.32;;
29816;SDS011;16805;52.956;5.906;2024-03-06T01:26:15;11.30;;;6.82;;
29816;SDS011;16805;52.956;5.906;2024-03-06T01:28:41;9.90;;;6.35;;
29816;SDS011;16805;52.956;5.906;2024-03-06T01:31:08;8.82;;;6.82;;
29816;SDS011;16805;52.956;5.906;2024-03-06T01:33:39;13.30;;;8.27;;
29816;SDS011;16805;52.956;5.906;2024-03-06T01:36:08;11.73;;;6.75;;
29816;SDS011;16805;52.956;5.906;2024-03-06T01:38:45;13.82;;;7.57;;
29816;SDS011;16805;52.956;5.906;2024-03-06T01:41:34;14.87;;;7.93;;
29816;SDS011;16805;52.956;5.906;2024-03-06T01:44:03;11.40;;;6.63;;
29816;SDS011;16805;52.956;5.906;2024-03-06T01:46:32;11.90;;;7.75;;
29816;SDS011;16805;52.956;5.906;2024-03-06T01:49:05;8.90;;;6.95;;
29816;SDS011;16805;52.956;5.906;2024-03-06T01:51:37;9.35;;;6.60;;
29816;SDS011;16805;52.956;5.906;2024-03-06T01:54:12;15.18;;;7.25;;
29816;SDS011;16805;52.956;5.906;2024-03-06T01:56:42;14.68;;;6.88;;
29816;SDS011;16805;52.956;5.906;2024-03-06T01:59:15;10.80;;;7.03;;
29816;SDS011;16805;52.956;5.906;2024-03-06T02:01:44;12.90;;;7.03;;
29816;SDS011;16805;52.956;5.906;2024-03-06T02:04:13;9.73;;;7.15;;
29816;SDS011;16805;52.956;5.906;2024-03-06T02:06:39;12.75;;;6.90;;
29816;SDS011;16805;52.956;5.906;2024-03-06T02:09:11;12.68;;;7.13;;
29816;SDS011;16805;52.956;5.906;2024-03-06T02:11:45;10.32;;;6.82;;
29816;SDS011;16805;52.956;5.906;2024-03-06T02:14:11;8.13;;;6.32;;
29816;SDS011;16805;52.956;5.906;2024-03-06T02:16:47;12.80;;;7.25;;
29816;SDS011;16805;52.956;5.906;2024-03-06T02:19:13;14.10;;;7.05;;
29816;SDS011;16805;52.956;5.906;2024-03-06T02:21:39;10.00;;;7.60;;
29816;SDS011;16805;52.956;5.906;2024-03-06T02:24:04;10.68;;;7.45;;
29816;SDS011;16805;52.956;5.906;2024-03-06T02:26:35;7.68;;;6.28;;
29816;SDS011;16805;52.956;5.906;2024-03-06T02:29:01;10.82;;;7.18;;
29816;SDS011;16805;52.956;5.906;2024-03-06T02:31:27;12.50;;;6.93;;
29816;SDS011;16805;52.956;5.906;2024-03-06T02:33:53;9.48;;;6.63;;
29816;SDS011;16805;52.956;5.906;2024-03-06T02:36:19;9.25;;;6.07;;
29816;SDS011;16805;52.956;5.906;2024-03-06T02:38:45;10.38;;;6.18;;
29816;SDS011;16805;52.956;5.906;2024-03-06T02:41:11;10.40;;;5.68;;
29816;SDS011;16805;52.956;5.906;2024-03-06T02:43:41;9.82;;;5.93;;
29816;SDS011;16805;52.956;5.906;2024-03-06T02:46:09;9.80;;;6.95;;
29816;SDS011;16805;52.956;5.906;2024-03-06T02:48:35;9.38;;;5.97;;
29816;SDS011;16805;52.956;5.906;2024-03-06T02:51:01;8.73;;;6.63;;
29816;SDS011;16805;52.956;5.906;2024-03-06T02:53:27;12.30;;;6.38;;
29816;SDS011;16805;52.956;5.906;2024-03-06T02:55:53;9.18;;;7.25;;
29816;SDS011;16805;52.956;5.906;2024-03-06T02:58:18;16.55;;;7.78;;
29816;SDS011;16805;52.956;5.906;2024-03-06T03:00:44;10.88;;;6.80;;
29816;SDS011;16805;52.956;5.906;2024-03-06T03:03:13;9.98;;;7.30;;
29816;SDS011;16805;52.956;5.906;2024-03-06T03:05:39;9.27;;;6.47;;
29816;SDS011;16805;52.956;5.906;2024-03-06T03:08:11;9.23;;;6.10;;
29816;SDS011;16805;52.956;5.906;2024-03-06T03:10:37;7.32;;;5.85;;
29816;SDS011;16805;52.956;5.906;2024-03-06T03:13:05;10.65;;;6.68;;
29816;SDS011;16805;52.956;5.906;2024-03-06T03:15:37;7.72;;;5.45;;
29816;SDS011;16805;52.956;5.906;2024-03-06T03:18:03;10.38;;;7.15;;
29816;SDS011;16805;52.956;5.906;2024-03-06T03:20:29;8.18;;;6.97;;
29816;SDS011;16805;52.956;5.906;2024-03-06T03:22:54;12.93;;;7.53;;
29816;SDS011;16805;52.956;5.906;2024-03-06T03:25:23;11.55;;;5.82;;
29816;SDS011;16805;52.956;5.906;2024-03-06T03:27:49;8.73;;;5.38;;
29816;SDS011;16805;52.956;5.906;2024-03-06T03:30:14;10.73;;;6.22;;
29816;SDS011;16805;52.956;5.906;2024-03-06T03:32:41;11.93;;;5.13;;
29816;SDS011;16805;52.956;5.906;2024-03-06T03:35:07;10.30;;;6.40;;
29816;SDS011;16805;52.956;5.906;2024-03-06T03:37:33;10.07;;;6.95;;
29816;SDS011;16805;52.956;5.906;2024-03-06T03:39:59;8.48;;;6.15;;
29816;SDS011;16805;52.956;5.906;2024-03-06T03:42:25;7.50;;;5.97;;
29816;SDS011;16805;52.956;5.906;2024-03-06T03:44:50;12.80;;;5.13;;
29816;SDS011;16805;52.956;5.906;2024-03-06T03:47:16;13.02;;;7.65;;
29816;SDS011;16805;52.956;5.906;2024-03-06T03:49:42;9.13;;;6.47;;
29816;SDS011;16805;52.956;5.906;2024-03-06T03:52:08;9.15;;;6.75;;
29816;SDS011;16805;52.956;5.906;2024-03-06T03:54:39;12.32;;;6.43;;
29816;SDS011;16805;52.956;5.906;2024-03-06T03:57:07;12.55;;;7.43;;
29816;SDS011;16805;52.956;5.906;2024-03-06T03:59:33;10.45;;;6.55;;
29816;SDS011;16805;52.956;5.906;2024-03-06T04:02:02;8.88;;;6.80;;
29816;SDS011;16805;52.956;5.906;2024-03-06T04:04:29;12.57;;;6.45;;
29816;SDS011;16805;52.956;5.906;2024-03-06T04:06:54;7.93;;;7.13;;
29816;SDS011;16805;52.956;5.906;2024-03-06T04:09:23;14.05;;;7.00;;
29816;SDS011;16805;52.956;5.906;2024-03-06T04:11:49;13.13;;;7.32;;
29816;SDS011;16805;52.956;5.906;2024-03-06T04:14:18;14.02;;;7.15;;
29816;SDS011;16805;52.956;5.906;2024-03-06T04:16:47;18.50;;;7.40;;
29816;SDS011;16805;52.956;5.906;2024-03-06T04:19:13;12.70;;;7.50;;
29816;SDS011;16805;52.956;5.906;2024-03-06T04:21:45;11.80;;;5.90;;
29816;SDS011;16805;52.956;5.906;2024-03-06T04:24:10;11.25;;;7.57;;
29816;SDS011;16805;52.956;5.906;2024-03-06T04:26:36;10.10;;;6.22;;
29816;SDS011;16805;52.956;5.906;2024-03-06T04:29:02;8.70;;;5.55;;
29816;SDS011;16805;52.956;5.906;2024-03-06T04:31:30;8.27;;;5.95;;
29816;SDS011;16805;52.956;5.906;2024-03-06T04:34:02;12.57;;;6.70;;
29816;SDS011;16805;52.956;5.906;2024-03-06T04:36:33;15.55;;;6.47;;
29816;SDS011;16805;52.956;5.906;2024-03-06T04:38:59;12.23;;;6.75;;
29816;SDS011;16805;52.956;5.906;2024-03-06T04:41:25;8.18;;;6.35;;
29816;SDS011;16805;52.956;5.906;2024-03-06T04:43:51;16.75;;;6.30;;
29816;SDS011;16805;52.956;5.906;2024-03-06T04:46:17;13.55;;;7.00;;
29816;SDS011;16805;52.956;5.906;2024-03-06T04:48:45;15.95;;;7.68;;
29816;SDS011;16805;52.956;5.906;2024-03-06T04:51:12;11.00;;;6.78;;
29816;SDS011;16805;52.956;5.906;2024-03-06T04:53:38;22.08;;;7.60;;
29816;SDS011;16805;52.956;5.906;2024-03-06T04:56:07;14.48;;;6.70;;
29816;SDS011;16805;52.956;5.906;2024-03-06T04:58:32;9.30;;;7.00;;
29816;SDS011;16805;52.956;5.906;2024-03-06T05:00:58;13.43;;;7.60;;
29816;SDS011;16805;52.956;5.906;2024-03-06T05:03:27;9.80;;;6.07;;
29816;SDS011;16805;52.956;5.906;2024-03-06T05:05:55;11.65;;;7.95;;
29816;SDS011;16805;52.956;5.906;2024-03-06T05:08:28;8.00;;;5.70;;
29816;SDS011;16805;52.956;5.906;2024-03-06T05:10:56;11.18;;;6.78;;
29816;SDS011;16805;52.956;5.906;2024-03-06T05:13:27;11.95;;;6.22;;
29816;SDS011;16805;52.956;5.906;2024-03-06T05:15:53;11.52;;;8.25;;
29816;SDS011;16805;52.956;5.906;2024-03-06T05:18:19;13.40;;;6.88;;
29816;SDS011;16805;52.956;5.906;2024-03-06T05:20:50;10.73;;;6.60;;
29816;SDS011;16805;52.956;5.906;2024-03-06T05:23:21;13.60;;;7.45;;
29816;SDS011;16805;52.956;5.906;2024-03-06T05:25:51;10.98;;;6.32;;
29816;SDS011;16805;52.956;5.906;2024-03-06T05:28:16;13.05;;;7.55;;
29816;SDS011;16805;52.956;5.906;2024-03-06T05:30:42;14.55;;;7.93;;
29816;SDS011;16805;52.956;5.906;2024-03-06T05:33:11;8.98;;;7.05;;
29816;SDS011;16805;52.956;5.906;2024-03-06T05:35:40;11.70;;;6.07;;
29816;SDS011;16805;52.956;5.906;2024-03-06T05:38:11;15.77;;;7.32;;
29816;SDS011;16805;52.956;5.906;2024-03-06T05:40:40;13.88;;;6.28;;
29816;SDS011;16805;52.956;5.906;2024-03-06T05:43:24;8.05;;;6.70;;
29816;SDS011;16805;52.956;5.906;2024-03-06T05:45:55;12.48;;;6.72;;
29816;SDS011;16805;52.956;5.906;2024-03-06T05:48:22;12.90;;;6.80;;
29816;SDS011;16805;52.956;5.906;2024-03-06T05:50:49;12.25;;;6.40;;
29816;SDS011;16805;52.956;5.906;2024-03-06T05:53:14;9.27;;;7.22;;
29816;SDS011;16805;52.956;5.906;2024-03-06T05:55:40;12.55;;;7.47;;
29816;SDS011;16805;52.956;5.906;2024-03-06T05:58:15;10.57;;;6.88;;
29816;SDS011;16805;52.956;5.906;2024-03-06T06:00:41;11.90;;;6.90;;
29816;SDS011;16805;52.956;5.906;2024-03-06T06:03:07;11.55;;;7.15;;
29816;SDS011;16805;52.956;5.906;2024-03-06T06:05:38;9.20;;;6.43;;
29816;SDS011;16805;52.956;5.906;2024-03-06T06:08:05;11.48;;;6.68;;
29816;SDS011;16805;52.956;5.906;2024-03-06T06:10:31;18.13;;;7.47;;
29816;SDS011;16805;52.956;5.906;2024-03-06T06:13:03;16.17;;;6.30;;
29816;SDS011;16805;52.956;5.906;2024-03-06T06:15:32;9.13;;;6.15;;
29816;SDS011;16805;52.956;5.906;2024-03-06T06:18:01;8.77;;;7.88;;
29816;SDS011;16805;52.956;5.906;2024-03-06T06:20:27;11.20;;;7.88;;
29816;SDS011;16805;52.956;5.906;2024-03-06T06:23:25;10.30;;;7.15;;
29816;SDS011;16805;52.956;5.906;2024-03-06T06:25:57;9.13;;;6.00;;
29816;SDS011;16805;52.956;5.906;2024-03-06T06:31:33;14.68;;;7.25;;
29816;SDS011;16805;52.956;5.906;2024-03-06T06:34:02;10.80;;;7.32;;
29816;SDS011;16805;52.956;5.906;2024-03-06T06:36:31;8.55;;;6.63;;
29816;SDS011;16805;52.956;5.906;2024-03-06T06:39:03;10.65;;;7.65;;
29816;SDS011;16805;52.956;5.906;2024-03-06T06:41:35;18.67;;;7.95;;
29816;SDS011;16805;52.956;5.906;2024-03-06T06:44:10;7.68;;;6.78;;
29816;SDS011;16805;52.956;5.906;2024-03-06T06:46:39;15.30;;;8.23;;
29816;SDS011;16805;52.956;5.906;2024-03-06T06:49:14;11.35;;;6.72;;
29816;SDS011;16805;52.956;5.906;2024-03-06T06:55:02;16.92;;;8.27;;
29816;SDS011;16805;52.956;5.906;2024-03-06T06:57:29;15.25;;;7.80;;
29816;SDS011;16805;52.956;5.906;2024-03-06T07:00:06;12.23;;;7.22;;
29816;SDS011;16805;52.956;5.906;2024-03-06T07:02:58;7.00;;;5.32;;
29816;SDS011;16805;52.956;5.906;2024-03-06T07:05:25;9.25;;;6.68;;
29816;SDS011;16805;52.956;5.906;2024-03-06T07:07:54;15.65;;;6.03;;
29816;SDS011;16805;52.956;5.906;2024-03-06T07:10:38;15.13;;;7.23;;
29816;SDS011;16805;52.956;5.906;2024-03-06T07:13:06;11.90;;;7.13;;
29816;SDS011;16805;52.956;5.906;2024-03-06T07:15:39;10.43;;;7.53;;
29816;SDS011;16805;52.956;5.906;2024-03-06T07:18:06;17.92;;;7.88;;
29816;SDS011;16805;52.956;5.906;2024-03-06T07:20:32;11.13;;;7.63;;
29816;SDS011;16805;52.956;5.906;2024-03-06T07:23:00;14.63;;;7.20;;
29816;SDS011;16805;52.956;5.906;2024-03-06T07:25:29;17.23;;;6.72;;
29816;SDS011;16805;52.956;5.906;2024-03-06T07:28:19;11.38;;;7.07;;
29816;SDS011;16805;52.956;5.906;2024-03-06T07:30:49;10.57;;;7.45;;
29816;SDS011;16805;52.956;5.906;2024-03-06T07:33:17;10.45;;;7.63;;
29816;SDS011;16805;52.956;5.906;2024-03-06T07:35:48;18.85;;;8.13;;
29816;SDS011;16805;52.956;5.906;2024-03-06T07:38:14;9.88;;;6.55;;
29816;SDS011;16805;52.956;5.906;2024-03-06T07:40:45;13.90;;;6.88;;
29816;SDS011;16805;52.956;5.906;2024-03-06T07:43:17;10.52;;;6.85;;
29816;SDS011;16805;52.956;5.906;2024-03-06T07:45:43;9.13;;;7.22;;
29816;SDS011;16805;52.956;5.906;2024-03-06T07:48:17;14.18;;;7.50;;
29816;SDS011;16805;52.956;5.906;2024-03-06T07:50:53;13.50;;;7.47;;
29816;SDS011;16805;52.956;5.906;2024-03-06T07:53:31;9.40;;;7.40;;
29816;SDS011;16805;52.956;5.906;2024-03-06T07:55:58;15.13;;;7.13;;
29816;SDS011;16805;52.956;5.906;2024-03-06T07:58:27;10.88;;;7.25;;
29816;SDS011;16805;52.956;5.906;2024-03-06T08:01:08;9.23;;;7.00;;
29816;SDS011;16805;52.956;5.906;2024-03-06T08:03:34;14.88;;;7.20;;
29816;SDS011;16805;52.956;5.906;2024-03-06T08:06:03;19.75;;;8.23;;
29816;SDS011;16805;52.956;5.906;2024-03-06T08:08:36;11.55;;;6.57;;
29816;SDS011;16805;52.956;5.906;2024-03-06T08:11:11;12.15;;;8.18;;
29816;SDS011;16805;52.956;5.906;2024-03-06T08:13:40;14.30;;;8.02;;
29816;SDS011;16805;52.956;5.906;2024-03-06T08:16:13;11.50;;;7.28;;
29816;SDS011;16805;52.956;5.906;2024-03-06T08:18:48;16.27;;;8.02;;
29816;SDS011;16805;52.956;5.906;2024-03-06T08:21:19;13.15;;;8.32;;
29816;SDS011;16805;52.956;5.906;2024-03-06T08:24:07;9.93;;;6.65;;
29816;SDS011;16805;52.956;5.906;2024-03-06T08:26:41;13.95;;;8.13;;
29816;SDS011;16805;52.956;5.906;2024-03-06T08:29:13;11.85;;;7.40;;
29816;SDS011;16805;52.956;5.906;2024-03-06T08:31:42;13.95;;;8.60;;
29816;SDS011;16805;52.956;5.906;2024-03-06T08:34:08;10.68;;;8.18;;
29816;SDS011;16805;52.956;5.906;2024-03-06T08:36:34;17.08;;;8.02;;
29816;SDS011;16805;52.956;5.906;2024-03-06T08:39:00;15.93;;;7.03;;
29816;SDS011;16805;52.956;5.906;2024-03-06T08:41:30;9.98;;;6.65;;
29816;SDS011;16805;52.956;5.906;2024-03-06T08:43:59;14.38;;;7.68;;
29816;SDS011;16805;52.956;5.906;2024-03-06T08:46:28;11.55;;;8.25;;
29816;SDS011;16805;52.956;5.906;2024-03-06T08:48:57;12.30;;;7.68;;
29816;SDS011;16805;52.956;5.906;2024-03-06T08:51:22;19.25;;;8.93;;
29816;SDS011;16805;52.956;5.906;2024-03-06T08:53:54;11.15;;;7.50;;
29816;SDS011;16805;52.956;5.906;2024-03-06T08:56:20;12.57;;;8.30;;
29816;SDS011;16805;52.956;5.906;2024-03-06T08:58:46;11.50;;;9.52;;
29816;SDS011;16805;52.956;5.906;2024-03-06T09:01:14;16.17;;;8.50;;
29816;SDS011;16805;52.956;5.906;2024-03-06T09:03:43;13.80;;;7.90;;
29816;SDS011;16805;52.956;5.906;2024-03-06T09:06:08;16.83;;;7.65;;
29816;SDS011;16805;52.956;5.906;2024-03-06T09:08:36;16.55;;;7.93;;
29816;SDS011;16805;52.956;5.906;2024-03-06T09:11:06;12.45;;;8.20;;
29816;SDS011;16805;52.956;5.906;2024-03-06T09:13:32;11.68;;;8.60;;
29816;SDS011;16805;52.956;5.906;2024-03-06T09:16:01;9.68;;;7.07;;
29816;SDS011;16805;52.956;5.906;2024-03-06T09:18:26;15.32;;;7.65;;
29816;SDS011;16805;52.956;5.906;2024-03-06T09:20:59;13.43;;;8.18;;
29816;SDS011;16805;52.956;5.906;2024-03-06T09:23:27;12.05;;;8.20;;
29816;SDS011;16805;52.956;5.906;2024-03-06T09:25:55;12.88;;;7.70;;
29816;SDS011;16805;52.956;5.906;2024-03-06T09:28:21;10.60;;;8.35;;
29816;SDS011;16805;52.956;5.906;2024-03-06T09:30:59;17.67;;;9.38;;
29816;SDS011;16805;52.956;5.906;2024-03-06T09:33:29;14.73;;;8.65;;
29816;SDS011;16805;52.956;5.906;2024-03-06T09:35:55;10.82;;;8.32;;
29816;SDS011;16805;52.956;5.906;2024-03-06T09:38:37;11.82;;;8.20;;
29816;SDS011;16805;52.956;5.906;2024-03-06T09:41:04;14.60;;;9.10;;
29816;SDS011;16805;52.956;5.906;2024-03-06T09:43:30;11.18;;;7.63;;
29816;SDS011;16805;52.956;5.906;2024-03-06T09:45:56;20.95;;;8.45;;
29816;SDS011;16805;52.956;5.906;2024-03-06T09:48:24;13.05;;;8.70;;
29816;SDS011;16805;52.956;5.906;2024-03-06T09:50:50;14.98;;;8.02;;
29816;SDS011;16805;52.956;5.906;2024-03-06T09:53:23;18.75;;;8.85;;
29816;SDS011;16805;52.956;5.906;2024-03-06T09:55:53;10.43;;;7.32;;
29816;SDS011;16805;52.956;5.906;2024-03-06T09:58:24;16.13;;;7.60;;
29816;SDS011;16805;52.956;5.906;2024-03-06T10:00:53;22.88;;;10.50;;
29816;SDS011;16805;52.956;5.906;2024-03-06T10:03:32;10.95;;;7.43;;
29816;SDS011;16805;52.956;5.906;2024-03-06T10:05:59;15.23;;;8.40;;
29816;SDS011;16805;52.956;5.906;2024-03-06T10:08:32;13.98;;;7.93;;
29816;SDS011;16805;52.956;5.906;2024-03-06T10:11:01;13.15;;;7.85;;
29816;SDS011;16805;52.956;5.906;2024-03-06T10:13:30;11.65;;;8.38;;
29816;SDS011;16805;52.956;5.906;2024-03-06T10:16:03;9.95;;;7.85;;
29816;SDS011;16805;52.956;5.906;2024-03-06T10:18:46;13.77;;;8.98;;
29816;SDS011;16805;52.956;5.906;2024-03-06T10:21:13;12.38;;;7.72;;
29816;SDS011;16805;52.956;5.906;2024-03-06T10:23:43;12.85;;;7.82;;
29816;SDS011;16805;52.956;5.906;2024-03-06T10:26:11;13.80;;;7.65;;
29816;SDS011;16805;52.956;5.906;2024-03-06T10:28:44;19.55;;;8.18;;
29816;SDS011;16805;52.956;5.906;2024-03-06T10:31:10;13.70;;;8.45;;
29816;SDS011;16805;52.956;5.906;2024-03-06T10:33:39;11.15;;;8.50;;
29816;SDS011;16805;52.956;5.906;2024-03-06T10:36:04;16.20;;;9.30;;
29816;SDS011;16805;52.956;5.906;2024-03-06T10:38:41;11.40;;;8.30;;
29816;SDS011;16805;52.956;5.906;2024-03-06T10:41:13;12.75;;;8.98;;
29816;SDS011;16805;52.956;5.906;2024-03-06T10:43:43;12.18;;;10.45;;
29816;SDS011;16805;52.956;5.906;2024-03-06T10:46:12;21.85;;;9.00;;
29816;SDS011;16805;52.956;5.906;2024-03-06T10:48:47;17.33;;;9.20;;
29816;SDS011;16805;52.956;5.906;2024-03-06T10:51:15;11.88;;;9.38;;
29816;SDS011;16805;52.956;5.906;2024-03-06T10:53:52;12.43;;;8.35;;
29816;SDS011;16805;52.956;5.906;2024-03-06T10:56:28;16.17;;;9.45;;
29816;SDS011;16805;52.956;5.906;2024-03-06T10:58:58;18.30;;;9.50;;
29816;SDS011;16805;52.956;5.906;2024-03-06T11:01:33;14.75;;;9.15;;
29816;SDS011;16805;52.956;5.906;2024-03-06T11:04:03;16.58;;;9.73;;
29816;SDS011;16805;52.956;5.906;2024-03-06T11:06:33;18.65;;;9.90;;
29816;SDS011;16805;52.956;5.906;2024-03-06T11:09:12;16.15;;;10.07;;
29816;SDS011;16805;52.956;5.906;2024-03-06T11:14:21;19.42;;;8.80;;
29816;SDS011;16805;52.956;5.906;2024-03-06T11:17:09;17.33;;;11.18;;
29816;SDS011;16805;52.956;5.906;2024-03-06T11:28:32;13.88;;;9.25;;
29816;SDS011;16805;52.956;5.906;2024-03-06T11:31:05;19.92;;;11.23;;
29816;SDS011;16805;52.956;5.906;2024-03-06T11:33:45;16.55;;;11.13;;
29816;SDS011;16805;52.956;5.906;2024-03-06T11:36:25;26.25;;;11.93;;
29816;SDS011;16805;52.956;5.906;2024-03-06T11:41:47;14.38;;;9.23;;
29816;SDS011;16805;52.956;5.906;2024-03-06T11:44:26;18.58;;;11.13;;
29816;SDS011;16805;52.956;5.906;2024-03-06T11:49:56;20.02;;;10.45;;
29816;SDS011;16805;52.956;5.906;2024-03-06T11:52:44;18.30;;;10.85;;
29816;SDS011;16805;52.956;5.906;2024-03-06T11:55:12;15.25;;;10.75;;
29816;SDS011;16805;52.956;5.906;2024-03-06T11:57:38;14.98;;;9.45;;
29816;SDS011;16805;52.956;5.906;2024-03-06T12:00:10;18.45;;;10.73;;
29816;SDS011;16805;52.956;5.906;2024-03-06T12:02:48;21.00;;;10.70;;
29816;SDS011;16805;52.956;5.906;2024-03-06T12:05:17;18.85;;;11.35;;
29816;SDS011;16805;52.956;5.906;2024-03-06T12:08:38;17.70;;;9.90;;
29816;SDS011;16805;52.956;5.906;2024-03-06T12:11:29;18.15;;;9.35;;
29816;SDS011;16805;52.956;5.906;2024-03-06T12:14:04;20.60;;;11.60;;
29816;SDS011;16805;52.956;5.906;2024-03-06T12:16:34;20.73;;;10.52;;
29816;SDS011;16805;52.956;5.906;2024-03-06T12:19:04;25.00;;;10.48;;
29816;SDS011;16805;52.956;5.906;2024-03-06T12:21:40;21.95;;;10.95;;
29816;SDS011;16805;52.956;5.906;2024-03-06T12:24:15;16.85;;;11.27;;
29816;SDS011;16805;52.956;5.906;2024-03-06T12:26:57;17.90;;;10.90;;
